Flight Track Log - Related Links

Times and Time Zones

All times are in EDT time to prevent confusion due to time zone crossing. See the AWE403 flight status page for this flight to view local times or setup timezone preferences in your user account.

Time Position Orientation Groundspeed Altitude Reporting Facility
EDT Latitude Longitude Course Direction KTS MPH feet Rate Location/Type
Wed 02:25:53 PM 37.6319 -122.4042 67° East 180 207 31,000  Level Oakland Center
Wed 02:26:55 PM 37.6561 -122.4614 298° West 201 231 2,400 -12,927 Descending Oakland Center
Wed 02:27:56 PM 37.6917 -122.5450 298° West 243 280 4,500 2,390 Climbing Oakland Center
Wed 02:28:00 PM 37.7698 -121.9031 65° Northeast  Level FlightAware Approximate
Wed 02:28:58 PM 37.7747 -122.5639 350° North 280 322 7,300  Level Oakland Center
Wed 02:29:00 PM 37.8277 -121.7484 65° Northeast  Level FlightAware Approximate
Wed 02:30:00 PM 37.8691 -121.5865 69° East  Level FlightAware Approximate
Wed 02:30:00 PM 37.8003 -122.4719 71° East 287 330 9,400  Level Oakland Center
Wed 02:31:00 PM 37.9188 -121.4271 67° East  Level FlightAware Approximate
Wed 02:31:02 PM 37.8206 -122.3692 76° East 303 349 10,800  Level Oakland Center
Wed 02:32:03 PM 37.8433 -122.2458 77° East 360 414 11,800 1,366 Climbing Oakland Center
Wed 02:33:05 PM 37.8683 -122.1172 76° East 378 435 13,600 1,645 Climbing Oakland Center
Wed 02:34:07 PM 37.8925 -121.9831 77° East 389 448 15,200 1,610 Climbing Oakland Center
Wed 02:35:08 PM 37.9250 -121.8172 76° East 405 466 16,900 1,463 Climbing Oakland Center
Wed 02:36:10 PM 37.9492 -121.6836 77° East 416 479 18,200 1,210 Climbing Oakland Center
Wed 02:37:12 PM 37.9772 -121.5358 76° East 428 493 19,400 1,210 Climbing Oakland Center
Wed 02:38:14 PM 38.0053 -121.3856 77° East 436 502 20,700 1,317 Climbing Oakland Center
Wed 02:39:15 PM 38.0386 -121.2014 77° East 445 512 22,100 1,220 Climbing Oakland Center
Wed 02:40:17 PM 38.0672 -121.0447 77° East 456 525 23,200 919 Climbing Oakland Center
Wed 02:41:19 PM 38.0964 -120.8844 77° East 464 534 24,000 878 Climbing Oakland Center
Wed 02:42:20 PM 38.1247 -120.7214 77° East 472 543 25,000 1,122 Climbing Oakland Center
Wed 02:43:22 PM 38.1544 -120.5583 77° East 478 550 26,300 1,113 Climbing Oakland Center
Wed 02:44:24 PM 38.1831 -120.3936 77° East 478 550 27,300 1,073 Climbing Oakland Center
Wed 02:45:25 PM 38.2186 -120.1919 77° East 485 558 28,500 927 Climbing Oakland Center
Wed 02:46:27 PM 38.2497 -120.0233 77° East 488 562 29,200 774 Climbing Oakland Center
Wed 02:47:29 PM 38.2794 -119.8514 78° East 494 568 30,100 829 Climbing Oakland Center
Wed 02:48:30 PM 38.3086 -119.6794 78° East 496 571 30,900 439 Climbing Oakland Center
Wed 02:49:32 PM 38.3378 -119.5106 78° East 494 568 31,000 48 Climbing Oakland Center
Wed 02:50:34 PM 38.3683 -119.3331 78° East 496 571 31,000  Level Oakland Center
Wed 02:51:35 PM 38.3961 -119.1639 78° East 495 570 31,000  Level Oakland Center
Wed 02:52:37 PM 38.4247 -118.9922 78° East 495 570 31,000  Level Oakland Center
Wed 02:53:39 PM 38.4581 -118.7858 78° East 496 571 31,000  Level Oakland Center
Wed 02:54:40 PM 38.4858 -118.6156 78° East 496 571 31,000  Level Oakland Center
Wed 02:55:42 PM 38.5142 -118.4422 78° East 497 572 31,000  Level Oakland Center
Wed 02:56:43 PM 38.5431 -118.2697 78° East 498 573 31,000  Level Oakland Center
Wed 02:57:45 PM 38.5697 -118.0969 79° East 498 573 31,000  Level Oakland Center
Wed 02:58:47 PM 38.5967 -117.9236 79° East 498 573 31,000  Level Oakland Center
Wed 02:59:48 PM 38.6233 -117.7489 79° East 498 573 31,000  Level Oakland Center
Wed 03:00:33 PM 38.6433 -117.6089 80° East 500 575 31,000  Level Salt Lake Center
Wed 03:01:35 PM 38.6708 -117.4339 79° East 500 575 31,000  Level Salt Lake Center
Wed 03:02:37 PM 38.6964 -117.2569 79° East 500 575 31,000  Level Salt Lake Center
Wed 03:03:39 PM 38.7275 -117.0442 79° East 500 575 31,000  Level Salt Lake Center
Wed 03:04:41 PM 38.7533 -116.8678 79° East 501 577 31,000  Level Salt Lake Center
Wed 03:05:43 PM 38.7789 -116.6906 79° East 501 577 31,000  Level Salt Lake Center
Wed 03:06:45 PM 38.8044 -116.5125 80° East 503 579 31,000  Level Salt Lake Center
Wed 03:07:48 PM 38.8292 -116.3364 80° East 503 579 31,000  Level Salt Lake Center
Wed 03:08:50 PM 38.8536 -116.1578 80° East 503 579 31,000  Level Salt Lake Center
Wed 03:09:52 PM 38.8786 -115.9822 80° East 503 579 31,000  Level Salt Lake Center
Wed 03:10:54 PM 38.9078 -115.7686 80° East 504 580 31,000  Level Salt Lake Center
Wed 03:11:56 PM 38.9322 -115.5900 80° East 504 580 31,000  Level Salt Lake Center
Wed 03:12:58 PM 38.9547 -115.4136 81° East 504 580 31,000  Level Salt Lake Center
Wed 03:14:00 PM 38.9764 -115.2503 80° East 503 579 31,000  Level Salt Lake Center
Wed 03:15:02 PM 39.0039 -115.0381 80° East 504 580 31,000  Level Salt Lake Center
Wed 03:16:04 PM 39.0269 -114.8592 81° East 504 580 31,000  Level Salt Lake Center
Wed 03:17:07 PM 39.0497 -114.6817 81° East 505 581 31,000  Level Salt Lake Center
Wed 03:18:09 PM 39.0725 -114.5025 81° East 505 581 31,000  Level Salt Lake Center
Wed 03:19:11 PM 39.0936 -114.3250 81° East 505 581 31,000  Level Salt Lake Center
Wed 03:20:13 PM 39.1158 -114.1464 81° East 505 581 31,000  Level Salt Lake Center
Wed 03:21:15 PM 39.1411 -113.9319 81° East 505 581 31,000  Level Salt Lake Center
Wed 03:22:17 PM 39.1619 -113.7531 81° East 505 581 31,000  Level Salt Lake Center
Wed 03:23:19 PM 39.1836 -113.5725 81° East 505 581 31,000  Level Salt Lake Center
Wed 03:24:21 PM 39.2042 -113.3939 81° East 506 582 31,000 48 Level Salt Lake Center
Wed 03:25:23 PM 39.2244 -113.2139 82° East 506 582 31,100  Climbing Salt Lake Center
Wed 03:26:25 PM 39.2450 -113.0347 82° East 506 582 31,000 -48 Descending Salt Lake Center
Wed 03:27:28 PM 39.2689 -112.8219 82° East 505 581 31,000  Level Salt Lake Center
Wed 03:28:30 PM 39.2869 -112.6464 82° East 500 575 31,000  Level Salt Lake Center
Wed 03:29:32 PM 39.3125 -112.4664 80° East 503 579 31,000  Level Salt Lake Center
Wed 03:30:34 PM 39.3619 -112.2986 69° East 505 581 31,000  Level Salt Lake Center
Wed 03:31:36 PM 39.4106 -112.1292 70° East 505 581 31,000  Level Salt Lake Center
Wed 03:32:38 PM 39.4589 -111.9592 70° East 505 581 31,000  Level Salt Lake Center
Wed 03:33:40 PM 39.5172 -111.7547 70° East 505 581 31,000  Level Salt Lake Center
Wed 03:34:42 PM 39.5650 -111.5844 70° East 505 581 31,000  Level Salt Lake Center
Wed 03:35:44 PM 39.6136 -111.4133 70° East 506 582 31,000  Level Salt Lake Center
Wed 03:36:46 PM 39.6614 -111.2433 70° East 506 582 31,000  Level Salt Lake Center
Wed 03:37:48 PM 39.7078 -111.0725 71° East 505 581 31,000  Level Salt Lake Center
Wed 03:38:50 PM 39.7647 -110.8689 70° East 504 580 31,000  Level Salt Lake Center
Wed 03:39:52 PM 39.8117 -110.6986 70° East 504 580 31,000  Level Salt Lake Center
Wed 03:40:54 PM 39.8572 -110.5278 71° East 503 579 31,000  Level Salt Lake Center
Wed 03:41:56 PM 39.9036 -110.3575 70° East 503 579 31,000 97 Level Salt Lake Center
Wed 03:42:58 PM 39.9494 -110.1889 70° East 502 578 31,200 532 Climbing Salt Lake Center
Wed 03:44:00 PM 39.9942 -110.0167 71° East 502 578 32,100 871 Climbing Salt Lake Center
Wed 03:45:02 PM 40.0272 -109.8067 78° East 498 573 33,000 435 Climbing Salt Lake Center
Wed 03:46:04 PM 40.0525 -109.6314 79° East 496 571 33,000  Level Salt Lake Center
Wed 03:47:06 PM 40.0747 -109.4656 80° East 496 571 33,000  Level Salt Lake Center
Wed 03:48:08 PM 40.1039 -109.2650 79° East 503 579 33,000  Level Salt Lake Center
Wed 03:49:10 PM 40.1264 -109.0933 80° East 503 579 33,000  Level Salt Lake Center
Wed 03:50:12 PM 40.1544 -108.8933 80° East 503 579 33,000  Level Salt Lake Center
Wed 03:51:14 PM 40.1764 -108.7239 80° East 502 578 33,000 -48 Level Salt Lake Center
Wed 03:52:16 PM 40.2033 -108.5250 80° East 502 578 32,900  Descending Salt Lake Center
Wed 03:53:18 PM 40.2258 -108.3561 80° East 499 574 33,000 56 Climbing Salt Lake Center
Wed 03:54:03 PM 40.2436 -108.2136 81° East 500 575 33,000  Level Denver Center
Wed 03:55:05 PM 40.2661 -108.0386 80° East 499 574 33,000  Level Denver Center
Wed 03:56:07 PM 40.2883 -107.8592 81° East 499 574 33,000  Level Denver Center
Wed 03:57:09 PM 40.3150 -107.6425 81° East 499 574 33,000 48 Level Denver Center
Wed 03:58:11 PM 40.3386 -107.4622 80° East 500 575 33,100  Climbing Denver Center
Wed 03:59:14 PM 40.3597 -107.2828 81° East 500 575 33,000 -48 Descending Denver Center
Wed 04:00:16 PM 40.3808 -107.1042 81° East 499 574 33,000  Level Denver Center
Wed 04:01:18 PM 40.4017 -106.9242 81° East 499 574 33,000  Level Denver Center
Wed 04:02:20 PM 40.4278 -106.7200 80° East 499 574 33,000 48 Level Denver Center
Wed 04:03:22 PM 40.4483 -106.5419 81° East 498 573 33,100  Climbing Denver Center
Wed 04:04:24 PM 40.4675 -106.3542 82° East 496 571 33,000 -48 Descending Denver Center
Wed 04:05:26 PM 40.4881 -106.1775 81° East 494 568 33,000  Level Denver Center
Wed 04:06:28 PM 40.5089 -105.9925 82° East 492 566 33,000  Level Denver Center
Wed 04:07:30 PM 40.5283 -105.8139 82° East 493 567 33,000 48 Level Denver Center
Wed 04:08:32 PM 40.5461 -105.6367 82° East 493 567 33,100  Climbing Denver Center
Wed 04:09:34 PM 40.5650 -105.4586 82° East 489 563 33,000 -48 Descending Denver Center
Wed 04:10:37 PM 40.5831 -105.2786 82° East 492 566 33,000  Level Denver Center
Wed 04:11:39 PM 40.6053 -105.0636 82° East 494 568 33,000  Level Denver Center
Wed 04:12:41 PM 40.6225 -104.8819 83° East 497 572 33,000  Level Denver Center
Wed 04:13:43 PM 40.6400 -104.7053 83° East 491 565 33,000  Level Denver Center
Wed 04:14:45 PM 40.6578 -104.5250 83° East 490 564 33,000  Level Denver Center
Wed 04:15:47 PM 40.6747 -104.3431 83° East 496 571 33,000  Level Denver Center
Wed 04:16:49 PM 40.6914 -104.1625 83° East 498 573 33,000  Level Denver Center
Wed 04:17:51 PM 40.7108 -103.9444 83° East 498 573 33,000  Level Denver Center
Wed 04:18:53 PM 40.7272 -103.7625 83° East 498 573 33,000  Level Denver Center
Wed 04:19:55 PM 40.7781 -103.5944 68° East 497 572 33,000  Level Denver Center
Wed 04:20:57 PM 40.8383 -103.4319 64° Northeast 497 572 33,000  Level Denver Center
Wed 04:22:00 PM 40.8975 -103.2689 64° Northeast 493 567 33,000  Level Denver Center
Wed 04:23:02 PM 40.9297 -103.0931 76° East 497 572 33,000  Level Denver Center
Wed 04:24:04 PM 40.9431 -102.8819 85° East 496 571 33,000  Level Denver Center
Wed 04:25:06 PM 40.9542 -102.7094 85° East 495 570 33,000  Level Denver Center
Wed 04:26:08 PM 40.9669 -102.5100 85° East 490 564 33,000  Level Denver Center
Wed 04:27:10 PM 40.9783 -102.3386 85° East 490 564 33,000  Level Denver Center
Wed 04:28:12 PM 40.9881 -102.1406 86° East 484 557 33,000  Level Denver Center
Wed 04:29:14 PM 40.9994 -101.9703 85° East 485 558 33,000  Level Denver Center
Wed 04:30:16 PM 41.0119 -101.7692 85° East 488 562 33,000  Level Denver Center
Wed 04:31:19 PM 41.0219 -101.5975 86° East 488 562 33,000  Level Denver Center
Wed 04:32:21 PM 41.0328 -101.3983 86° East 488 562 33,000  Level Denver Center
Wed 04:33:23 PM 41.0417 -101.2261 86° East 488 562 33,000  Level Denver Center
Wed 04:34:25 PM 41.0506 -101.0536 86° East 488 562 33,000  Level Denver Center
Wed 04:35:27 PM 41.0619 -100.8519 86° East 487 560 33,000  Level Denver Center
Wed 04:36:29 PM 41.0708 -100.6775 86° East 487 560 33,000  Level Denver Center
Wed 04:37:31 PM 41.0794 -100.4750 87° East 487 560 33,000  Level Denver Center
Wed 04:38:33 PM 41.0864 -100.3033 87° East 487 560 33,000  Level Denver Center
Wed 04:39:35 PM 41.0936 -100.1319 87° East 487 560 33,000  Level Denver Center
Wed 04:40:38 PM 41.1019 -99.9328 87° East 486 559 33,000  Level Denver Center
Wed 04:41:40 PM 41.1003 -99.7628 91° East 481 554 33,000  Level Denver Center
Wed 04:42:42 PM 41.0822 -99.5656 97° East 481 554 33,000  Level Denver Center
Wed 04:43:44 PM 41.0681 -99.3772 96° East 481 554 33,000  Level Denver Center
Wed 04:44:46 PM 41.0544 -99.2033 96° East 480 552 33,000  Level Denver Center
Wed 04:45:51 PM 41.0394 -99.0175 96° East 482 555 33,000  Level Minneapolis Center
Wed 04:46:53 PM 41.0228 -98.8417 97° East 482 555 33,000  Level Minneapolis Center
Wed 04:47:55 PM 41.0114 -98.6619 95° East 488 562 33,000  Level Minneapolis Center
Wed 04:48:57 PM 41.0011 -98.4897 94° East 478 550 33,000  Level Minneapolis Center
Wed 04:49:59 PM 40.9869 -98.3036 96° East 476 548 33,000  Level Minneapolis Center
Wed 04:51:01 PM 40.9731 -98.1322 96° East 472 543 33,000  Level Minneapolis Center
Wed 04:52:03 PM 40.9575 -97.9278 96° East 471 542 33,000  Level Minneapolis Center
Wed 04:53:05 PM 40.9442 -97.7558 96° East 470 541 33,000  Level Minneapolis Center
Wed 04:54:07 PM 40.9325 -97.5831 95° East 470 541 33,000  Level Minneapolis Center
Wed 04:55:09 PM 40.9211 -97.4083 95° East 473 544 33,000  Level Minneapolis Center
Wed 04:56:11 PM 40.9089 -97.2456 96° East 478 550 33,000  Level Minneapolis Center
Wed 04:57:13 PM 40.8933 -97.0350 96° East 479 551 33,000  Level Minneapolis Center
Wed 04:58:15 PM 40.8797 -96.8569 96° East 485 558 33,000 48 Level Minneapolis Center
Wed 04:59:17 PM 40.8797 -96.6781 90° East 487 560 33,100  Climbing Minneapolis Center
Wed 05:00:20 PM 40.8936 -96.5008 84° East 487 560 33,000 -48 Descending Minneapolis Center
Wed 05:01:22 PM 40.9044 -96.3250 85° East 487 560 33,000 290 Level Minneapolis Center
Wed 05:02:24 PM 40.9186 -96.1139 85° East 487 560 33,600 823 Climbing Minneapolis Center
Wed 05:03:26 PM 40.9297 -95.9392 85° East 486 559 34,700 677 Climbing Minneapolis Center
Wed 05:04:28 PM 40.9400 -95.7681 85° East 478 550 35,000 145 Climbing Minneapolis Center
Wed 05:05:30 PM 40.9522 -95.5933 85° East 477 549 35,000  Level Minneapolis Center
Wed 05:06:33 PM 40.9653 -95.3819 85° East 479 551 35,000  Level Minneapolis Center
Wed 05:07:35 PM 40.9756 -95.2053 86° East 480 552 35,000  Level Minneapolis Center
Wed 05:08:37 PM 40.9864 -95.0261 85° East 484 557 35,000  Level Minneapolis Center
Wed 05:09:39 PM 40.9956 -94.8478 86° East 484 557 35,000  Level Minneapolis Center
Wed 05:10:41 PM 41.0047 -94.6694 86° East 484 557 35,000  Level Minneapolis Center
Wed 05:11:43 PM 41.0158 -94.4564 86° East 488 562 35,000  Level Minneapolis Center
Wed 05:12:45 PM 41.0250 -94.2789 86° East 488 562 35,000  Level Minneapolis Center
Wed 05:13:48 PM 41.0333 -94.1014 86° East 488 562 35,000  Level Minneapolis Center
Wed 05:14:50 PM 41.0425 -93.9231 86° East 488 562 35,000  Level Minneapolis Center
Wed 05:15:52 PM 41.0503 -93.7447 87° East 488 562 35,000  Level Minneapolis Center
Wed 05:16:54 PM 41.0589 -93.5278 87° East 489 563 35,000  Level Minneapolis Center
Wed 05:17:57 PM 41.0669 -93.3464 87° East 492 566 35,000  Level Minneapolis Center
Wed 05:18:59 PM 41.0744 -93.1611 87° East 500 575 35,000  Level Minneapolis Center
Wed 05:20:01 PM 41.0817 -92.9786 87° East 500 575 35,000  Level Minneapolis Center
Wed 05:21:05 PM 41.0881 -92.7914 87° East 503 579 35,000  Level Chicago Center
Wed 05:22:08 PM 41.0958 -92.5672 87° East 505 581 35,000  Level Chicago Center
Wed 05:23:10 PM 41.1022 -92.3814 87° East 506 582 35,000  Level Chicago Center
Wed 05:24:12 PM 41.1083 -92.1931 87° East 510 587 35,000  Level Chicago Center
Wed 05:25:14 PM 41.1139 -92.0081 88° East 509 586 35,000  Level Chicago Center
Wed 05:26:16 PM 41.1186 -91.8225 88° East 508 585 35,000  Level Chicago Center
Wed 05:27:18 PM 41.0981 -91.6297 98° East 504 580 35,000  Level Chicago Center
Wed 05:28:20 PM 41.0792 -91.4467 98° East 504 580 35,000  Level Chicago Center
Wed 05:29:23 PM 41.0833 -91.2217 89° East 515 593 35,000  Level Chicago Center
Wed 05:30:25 PM 41.0933 -91.0339 86° East 513 590 35,000  Level Chicago Center
Wed 05:31:27 PM 41.1025 -90.8469 86° East 511 588 35,000  Level Chicago Center
Wed 05:32:29 PM 41.1119 -90.6583 86° East 511 588 35,000  Level Chicago Center
Wed 05:33:32 PM 41.1208 -90.4692 86° East 512 589 35,000  Level Chicago Center
Wed 05:34:33 PM 41.1317 -90.2778 86° East 513 590 35,000  Level Chicago Center
Wed 05:35:36 PM 41.1411 -90.0489 87° East 514 592 35,000  Level Chicago Center
Wed 05:36:38 PM 41.1494 -89.8558 87° East 519 597 35,000  Level Chicago Center
Wed 05:37:40 PM 41.1578 -89.6622 87° East 520 598 35,000  Level Chicago Center
Wed 05:38:42 PM 41.1608 -89.4700 89° East 515 593 35,000  Level Chicago Center
Wed 05:39:44 PM 41.1619 -89.2783 89° East 518 596 35,000  Level Chicago Center
Wed 05:40:46 PM 41.1608 -89.0781 90° East 515 593 35,000  Level Chicago Center
Wed 05:41:49 PM 41.1611 -88.8886 90° East 515 593 35,000  Level Chicago Center
Wed 05:42:51 PM 41.1606 -88.7042 90° East 505 581 35,000  Level Chicago Center
Wed 05:43:53 PM 41.1600 -88.4792 90° East 512 589 35,000  Level Chicago Center
Wed 05:44:55 PM 41.1589 -88.2908 90° East 520 598 35,000  Level Chicago Center
Wed 05:45:57 PM 41.1558 -88.1092 91° East 507 583 35,000  Level Chicago Center
Wed 05:46:59 PM 41.1539 -87.9228 91° East 509 586 35,000  Level Chicago Center
Wed 05:48:02 PM 41.1522 -87.6983 90° East 513 590 35,000  Level Chicago Center
Wed 05:49:04 PM 41.1514 -87.5108 90° East 513 590 35,000  Level Chicago Center
Wed 05:50:06 PM 41.1492 -87.3233 91° East 513 590 35,000  Level Chicago Center
Wed 05:51:08 PM 41.1456 -87.1336 91° East 514 592 35,000  Level Chicago Center
Wed 05:52:10 PM 41.1436 -86.9444 91° East 517 595 35,000  Level Chicago Center
Wed 05:53:13 PM 41.1383 -86.7153 92° East 518 596 35,000  Level Chicago Center
Wed 05:54:15 PM 41.1344 -86.5506 92° East 520 598 35,000  Level Chicago Center
Wed 05:55:17 PM 41.1306 -86.3217 91° East 520 598 35,000  Level Chicago Center
Wed 05:56:19 PM 41.1258 -86.1322 92° East 520 598 35,000  Level Chicago Center
Wed 05:57:21 PM 41.1208 -85.9419 92° East 520 598 35,000  Level Chicago Center
Wed 05:58:23 PM 41.1156 -85.7528 92° East 520 598 35,000  Level Chicago Center
Wed 05:59:26 PM 41.1089 -85.5644 93° East 519 597 35,000  Level Chicago Center
Wed 06:00:28 PM 41.1019 -85.3403 92° East 515 593 35,000  Level Chicago Center
Wed 06:01:30 PM 41.0958 -85.1500 92° East 521 600 35,000  Level Chicago Center
Wed 06:02:32 PM 41.0897 -84.9664 92° East 509 586 35,000  Level Chicago Center
Wed 06:03:34 PM 41.0836 -84.7828 92° East 508 585 35,000  Level Chicago Center
Wed 06:04:37 PM 41.0753 -84.5625 93° East 506 582 35,000  Level Chicago Center
Wed 06:05:39 PM 41.0683 -84.3792 93° East 503 579 35,000  Level Chicago Center
Wed 06:06:41 PM 41.0606 -84.1981 93° East 499 574 35,000  Level Chicago Center
Wed 06:07:43 PM 41.0533 -84.0181 93° East 496 571 35,000  Level Chicago Center
Wed 06:08:45 PM 41.0450 -83.8406 94° East 488 562 35,000  Level Chicago Center
Wed 06:09:47 PM 41.0381 -83.6636 93° East 486 559 35,000  Level Chicago Center
Wed 06:10:50 PM 41.0275 -83.4500 94° East 485 558 35,000  Level Chicago Center
Wed 06:12:13 PM 41.0150 -83.2111 94° East 486 559 35,000 41 Level Cleveland Center
Wed 06:13:15 PM 41.0067 -83.0439 94° East 486 559 35,100  Climbing Cleveland Center
Wed 06:14:17 PM 40.9964 -82.8322 94° East 485 558 35,000 -48 Descending Cleveland Center
Wed 06:15:19 PM 40.9853 -82.6558 95° East 485 558 35,000  Level Cleveland Center
Wed 06:16:21 PM 40.9761 -82.4803 94° East 484 557 35,000  Level Cleveland Center
Wed 06:17:24 PM 40.9656 -82.3061 95° East 480 552 35,000  Level Cleveland Center
Wed 06:18:26 PM 40.9553 -82.1314 94° East 480 552 35,000  Level Cleveland Center
Wed 06:19:28 PM 40.9431 -81.9219 94° East 480 552 35,000  Level Cleveland Center
Wed 06:20:30 PM 40.9314 -81.7486 95° East 480 552 35,000  Level Cleveland Center
Wed 06:21:32 PM 40.9203 -81.5753 95° East 480 552 35,000  Level Cleveland Center
Wed 06:22:34 PM 40.9089 -81.4019 95° East 480 552 35,000  Level Cleveland Center
Wed 06:23:36 PM 40.8944 -81.1947 95° East 477 549 35,000  Level Cleveland Center
Wed 06:24:39 PM 40.8842 -81.0375 95° East 479 551 35,000  Level Cleveland Center
Wed 06:25:41 PM 40.8719 -80.8614 95° East 480 552 35,000  Level Cleveland Center
Wed 06:26:43 PM 40.8581 -80.6692 95° East 481 554 35,000  Level Cleveland Center
Wed 06:27:45 PM 40.8450 -80.4933 96° East 482 555 35,000  Level Cleveland Center
Wed 06:28:47 PM 40.8292 -80.2886 96° East 483 556 35,000  Level Cleveland Center
Wed 06:29:49 PM 40.7911 -80.1208 107° East 482 555 35,000  Level Cleveland Center
Wed 06:30:51 PM 40.7342 -79.9614 115° Southeast 482 555 35,000  Level Cleveland Center
Wed 06:31:54 PM 40.6772 -79.8036 115° Southeast 475 547 35,000 -48 Level Cleveland Center
Wed 06:32:56 PM 40.6186 -79.6461 116° Southeast 475 547 34,900 -48 Descending Cleveland Center
Wed 06:33:58 PM 40.5606 -79.4889 116° Southeast 475 547 34,900 48 Level Cleveland Center
Wed 06:35:00 PM 40.4556 -79.3428 133° Southeast 458 527 35,000 48 Climbing Cleveland Center
Wed 06:36:02 PM 40.4064 -79.2108 116° Southeast 446 513 35,000  Level Cleveland Center
Wed 06:37:04 PM 40.3619 -79.0233 107° East 453 521 35,000 -242 Level Cleveland Center
Wed 06:38:06 PM 40.3278 -78.8669 106° East 450 518 34,500 -864 Descending Cleveland Center
Wed 06:39:09 PM 40.3144 -78.7078 96° East 447 514 33,200 -1,584 Descending Cleveland Center
Wed 06:40:11 PM 40.3156 -78.5369 89° East 465 535 31,200 -2,177 Descending Cleveland Center
Wed 06:41:13 PM 40.3147 -78.3250 90° East 484 557 28,700 -2,177 Descending Cleveland Center
Wed 06:42:15 PM 40.3139 -78.1536 90° East 483 556 26,700 -1,790 Descending Cleveland Center
Wed 06:43:17 PM 40.3136 -77.9894 90° East 468 539 25,000 -871 Descending Cleveland Center
Wed 06:44:19 PM 40.3067 -77.8272 93° East 458 527 24,900 -1,008 Descending Cleveland Center
Wed 06:45:22 PM 40.2869 -77.6681 99° East 446 513 22,900 -2,256 Descending Cleveland Center
Wed 06:46:24 PM 40.2656 -77.4814 98° East 435 501 20,200 -2,323 Descending Cleveland Center
Wed 06:47:26 PM 40.2475 -77.3278 99° East 428 493 18,100 -1,307 Descending Cleveland Center
Wed 06:48:05 PM 40.2364 -77.2372 99° East 415 478 18,000 -62 Descending New York Center
Wed 06:49:03 PM 40.2175 -77.0883 99° East 415 478 18,000  Level New York Center
Wed 06:50:03 PM 40.2000 -76.9428 99° East 415 478 18,000 -393 Level New York Center
Wed 06:51:05 PM 40.1822 -76.8025 99° East 420 483 17,200 -1,574 Descending New York Center
Wed 06:52:05 PM 40.1653 -76.6464 98° East 407 468 14,800 -2,237 Descending New York Center
Wed 06:53:03 PM 40.1469 -76.5089 100° East 395 455 12,800 -1,436 Descending New York Center
Wed 06:54:02 PM 40.1319 -76.3881 99° East 375 432 12,000 -942 Descending New York Center
Wed 06:55:04 PM 40.1186 -76.2703 98° East 341 392 10,900 -1,317 Descending New York Center
Wed 06:56:05 PM 40.1100 -76.1447 95° East 323 372 9,300 -1,450 Descending New York Center
Wed 06:57:04 PM 40.1022 -76.0356 95° East 313 360 8,000 -655 Descending New York Center
Wed 06:58:04 PM 40.0947 -75.9264 95° East 306 352 8,000  Level New York Center
Wed 06:59:04 PM 40.0883 -75.8311 95° East 298 343 8,000  Level New York Center
Wed 07:00:04 PM 40.0789 -75.7111 96° East 298 343 8,000  Level New York Center
Wed 07:01:05 PM 40.0744 -75.6131 93° East 298 343 8,000 -50 Level New York Center
Wed 07:02:04 PM 40.0689 -75.4958 94° East 293 337 7,900 -202 Descending New York Center
Wed 07:03:04 PM 40.0639 -75.4089 94° East 279 321 7,600 -744 Descending New York Center
Wed 07:04:05 PM 40.0594 -75.3108 93° East 251 289 6,400 -850 Descending New York Center
Wed 07:05:04 PM 40.0525 -75.2208 96° East 246 283 5,900 -178 Descending New York Center
Wed 07:06:20 PM 39.9833 -75.1833 157° South 216 249 6,000 44 Climbing Philadelphia TRACON
Wed 07:07:20 PM 39.9833 -75.1000 90° East 222 255 6,000 -400 Level Philadelphia TRACON
Wed 07:08:20 PM 40.0000 -75.0333 72° East 219 252 5,200 -526 Descending Philadelphia TRACON
Wed 07:09:14 PM 40.0167 -74.9667 72° East 203 234 5,000 -150 Descending Philadelphia TRACON
Wed 07:10:20 PM 40.0167 -74.8833 90° East 203 234 4,900 -476 Descending Philadelphia TRACON
Wed 07:11:20 PM 39.9667 -74.9167 207° Southwest 196 226 4,000 -800 Descending Philadelphia TRACON
Wed 07:12:20 PM 39.9333 -74.9667 229° Southwest 195 224 3,300 -579 Descending Philadelphia TRACON
Wed 07:13:14 PM 39.9167 -75.0167 247° West 192 221 2,900 -684 Descending Philadelphia TRACON
Wed 07:14:14 PM 39.9000 -75.0833 252° West 189 217 2,000 -835 Descending Philadelphia TRACON
Wed 07:15:09 PM 39.9000 -75.1333 270° West 146 168 1,300 -744 Descending Philadelphia TRACON
Wed 07:16:15 PM 39.8833 -75.1833 247° West 130 150 500 -727 Descending Philadelphia TRACON
Wed 07:18:00 PM 39.8667 -75.2333 247° West  Level FlightAware Approximate

Login

Don't have an account? Register now (free) for customized features, flight alerts, and more!